Time;durP1;ratioP1;P1;durP2;ratioP2;P2;SDS_P1;SDS_P2;PMS_P1;PMS_P2;Temp;Humidity;BMP_temperature;BMP_pressure;BME280_temperature;BME280_humidity;BME280_pressure;Samples;Min_cycle;Max_cycle;Signal;HPM_P1;HPM_P2
2021/12/05 00:20:21;;;;;;;67.43;36.33;;;;;;;;;;5024332;28;20044;-43
2021/12/05 00:22:42;;;;;;;64.57;34.95;;;;;;;;;;5032884;28;20029;-43
2021/12/05 00:25:12;;;;;;;74.70;37.42;;;;;;;;;;5020613;28;20180;-44
2021/12/05 00:27:48;;;;;;;71.28;38.00;;;;;;;;;;5029584;28;20041;-44
2021/12/05 00:41:38;;;;;;;80.00;41.08;;;;;;;;;;5033270;28;20061;-43
2021/12/05 01:15:21;;;;;;;69.32;34.47;;;;;;;;;;4972573;28;20183;-45
2021/12/05 01:18:13;;;;;;;70.32;38.42;;;;;;;;;;4972838;28;20082;-44
2021/12/05 01:20:42;;;;;;;64.75;35.65;;;;;;;;;;4972598;28;20129;-45
2021/12/05 01:23:24;;;;;;;64.68;34.15;;;;;;;;;;4972703;28;20514;-45
2021/12/05 01:26:00;;;;;;;66.88;34.80;;;;;;;;;;4972701;28;20496;-44
2021/12/05 01:31:20;;;;;;;71.10;36.05;;;;;;;;;;4972750;28;20382;-44
2021/12/05 01:39:42;;;;;;;58.13;31.90;;;;;;;;;;5014093;28;20036;-45
2021/12/05 01:45:26;;;;;;;69.03;37.63;;;;;;;;;;5013260;28;20037;-44
2021/12/05 01:58:57;;;;;;;62.22;35.17;;;;;;;;;;5013886;28;20068;-45
2021/12/05 02:41:46;;;;;;;57.22;31.38;;;;;;;;;;5013683;28;20489;-45
2021/12/05 02:44:24;;;;;;;59.78;32.03;;;;;;;;;;5013243;28;20149;-45
2021/12/05 02:46:59;;;;;;;60.42;31.73;;;;;;;;;;5013297;28;20416;-44
2021/12/05 02:49:26;;;;;;;66.25;33.05;;;;;;;;;;5013037;28;20072;-45
2021/12/05 02:51:56;;;;;;;56.35;30.25;;;;;;;;;;5013107;28;20018;-44
2021/12/05 02:54:23;;;;;;;59.28;33.33;;;;;;;;;;5013690;28;20042;-43
2021/12/05 02:56:51;;;;;;;56.60;33.13;;;;;;;;;;5016631;28;20033;-44
2021/12/05 02:59:21;;;;;;;55.05;30.20;;;;;;;;;;5016841;28;20077;-44
2021/12/05 03:01:56;;;;;;;61.05;31.33;;;;;;;;;;5016538;28;20038;-44
2021/12/05 03:04:24;;;;;;;58.38;31.88;;;;;;;;;;5016468;28;20093;-44
2021/12/05 03:06:53;;;;;;;58.92;29.60;;;;;;;;;;5016717;28;20026;-43
2021/12/05 03:09:20;;;;;;;56.35;29.58;;;;;;;;;;5016601;28;20485;-43
2021/12/05 03:11:46;;;;;;;50.17;28.75;;;;;;;;;;5016627;28;20053;-43
2021/12/05 03:14:12;;;;;;;52.03;30.08;;;;;;;;;;5016171;28;20109;-44
2021/12/05 03:16:39;;;;;;;54.28;29.15;;;;;;;;;;5016331;28;20492;-43
2021/12/05 03:19:06;;;;;;;58.63;32.28;;;;;;;;;;5016104;28;20041;-45
2021/12/05 03:21:32;;;;;;;58.70;30.75;;;;;;;;;;5016456;28;20153;-45
2021/12/05 03:23:59;;;;;;;62.20;30.77;;;;;;;;;;5016214;28;20083;-44
2021/12/05 03:26:27;;;;;;;56.15;31.55;;;;;;;;;;5016154;28;20474;-45
2021/12/05 03:28:55;;;;;;;59.22;31.35;;;;;;;;;;5016324;28;20044;-44
2021/12/05 03:31:22;;;;;;;53.30;29.63;;;;;;;;;;5016046;28;20030;-45
2021/12/05 03:33:50;;;;;;;57.80;30.50;;;;;;;;;;5015947;28;20037;-45
2021/12/05 03:36:16;;;;;;;56.60;31.60;;;;;;;;;;5016087;28;20389;-43
2021/12/05 03:38:42;;;;;;;61.80;30.98;;;;;;;;;;5015937;28;20030;-44
2021/12/05 03:41:09;;;;;;;58.47;30.88;;;;;;;;;;5016027;28;20437;-43
2021/12/05 03:43:35;;;;;;;63.00;30.95;;;;;;;;;;5015642;28;20466;-45
2021/12/05 03:46:02;;;;;;;54.97;30.70;;;;;;;;;;5015913;28;20040;-44
2021/12/05 03:48:30;;;;;;;60.17;31.52;;;;;;;;;;5015701;28;20069;-43
2021/12/05 03:50:58;;;;;;;53.55;29.55;;;;;;;;;;5015695;28;20026;-44
2021/12/05 03:53:25;;;;;;;54.10;29.58;;;;;;;;;;5015583;28;20033;-43
2021/12/05 03:55:52;;;;;;;53.78;30.05;;;;;;;;;;5015554;28;20022;-44
2021/12/05 03:58:19;;;;;;;53.83;29.80;;;;;;;;;;5015602;28;20030;-44
2021/12/05 04:00:47;;;;;;;54.40;29.80;;;;;;;;;;5015460;28;20458;-45
2021/12/05 04:03:15;;;;;;;53.08;28.80;;;;;;;;;;5015464;28;20112;-45
2021/12/05 04:05:41;;;;;;;61.70;31.90;;;;;;;;;;5015043;28;20548;-45
2021/12/05 04:08:10;;;;;;;53.92;30.08;;;;;;;;;;5014760;28;20481;-44
2021/12/05 04:10:37;;;;;;;54.72;30.00;;;;;;;;;;5015301;28;20026;-43
2021/12/05 04:13:03;;;;;;;54.72;29.73;;;;;;;;;;5015358;28;20117;-43
2021/12/05 04:15:29;;;;;;;60.47;31.40;;;;;;;;;;5015043;28;20050;-43
2021/12/05 04:17:55;;;;;;;71.05;34.50;;;;;;;;;;5014959;28;20036;-46
2021/12/05 04:20:22;;;;;;;75.13;35.03;;;;;;;;;;5015221;28;20021;-45
2021/12/05 04:22:49;;;;;;;65.97;32.20;;;;;;;;;;5015268;28;20394;-45
2021/12/05 04:25:16;;;;;;;68.00;36.85;;;;;;;;;;5013816;28;20049;-45
2021/12/05 04:27:43;;;;;;;62.88;34.42;;;;;;;;;;5014922;28;20034;-48
2021/12/05 04:30:10;;;;;;;57.40;33.45;;;;;;;;;;5013745;28;20053;-45
2021/12/05 04:32:36;;;;;;;54.90;30.23;;;;;;;;;;5014954;28;20481;-45
2021/12/05 04:35:03;;;;;;;52.78;29.77;;;;;;;;;;5014998;28;20034;-45
2021/12/05 04:37:29;;;;;;;54.90;30.27;;;;;;;;;;5015172;28;20034;-44
2021/12/05 04:39:55;;;;;;;53.58;28.88;;;;;;;;;;5014755;28;20164;-44
2021/12/05 04:42:21;;;;;;;55.47;30.92;;;;;;;;;;5014825;28;20120;-45
2021/12/05 04:44:50;;;;;;;52.33;28.98;;;;;;;;;;5014844;28;20030;-45
2021/12/05 04:47:16;;;;;;;48.40;28.25;;;;;;;;;;5014492;28;20061;-44
2021/12/05 04:49:43;;;;;;;46.72;27.63;;;;;;;;;;5014641;28;20028;-44
2021/12/05 04:52:09;;;;;;;52.58;29.52;;;;;;;;;;5014641;28;20022;-44
2021/12/05 04:54:36;;;;;;;49.47;29.30;;;;;;;;;;5014686;28;20037;-43
2021/12/05 04:57:02;;;;;;;48.65;27.48;;;;;;;;;;5014449;28;20535;-45
2021/12/05 04:59:33;;;;;;;49.88;28.42;;;;;;;;;;5014459;28;20030;-43
2021/12/05 05:02:01;;;;;;;48.55;27.98;;;;;;;;;;5014407;28;20029;-43
2021/12/05 05:04:29;;;;;;;46.92;27.42;;;;;;;;;;5014509;28;20409;-44
2021/12/05 05:07:02;;;;;;;45.45;27.33;;;;;;;;;;5013282;28;20061;-45
2021/12/05 05:09:28;;;;;;;47.92;26.90;;;;;;;;;;5014350;28;20065;-45
2021/12/05 05:11:54;;;;;;;51.90;28.48;;;;;;;;;;5014153;28;20026;-44
2021/12/05 05:14:21;;;;;;;50.88;28.05;;;;;;;;;;5013853;28;20061;-44
2021/12/05 05:16:52;;;;;;;48.50;26.52;;;;;;;;;;5013928;28;20085;-44
2021/12/05 05:19:21;;;;;;;49.03;26.95;;;;;;;;;;5013982;28;20022;-44
2021/12/05 05:21:56;;;;;;;47.85;27.92;;;;;;;;;;5014184;28;20034;-44
2021/12/05 05:51:06;;;;;;;55.28;27.30;;;;;;;;;;5011840;28;20041;-44
2021/12/05 05:53:33;;;;;;;54.13;29.48;;;;;;;;;;5011489;28;20429;-44
2021/12/05 05:56:00;;;;;;;61.35;30.90;;;;;;;;;;5011604;28;20033;-44
2021/12/05 06:01:07;;;;;;;56.97;29.40;;;;;;;;;;5011510;28;20092;-45
2021/12/05 06:03:33;;;;;;;55.00;29.50;;;;;;;;;;5011326;28;20022;-44
2021/12/05 06:06:04;;;;;;;49.08;29.77;;;;;;;;;;5011480;28;20442;-44
2021/12/05 06:08:31;;;;;;;62.90;35.17;;;;;;;;;;5011331;28;20124;-45
2021/12/05 06:11:00;;;;;;;63.03;31.25;;;;;;;;;;5012024;28;20456;-44
2021/12/05 06:13:27;;;;;;;48.95;28.73;;;;;;;;;;5013198;28;20080;-45
2021/12/05 06:15:53;;;;;;;52.08;29.50;;;;;;;;;;5013337;28;20045;-44
2021/12/05 06:18:19;;;;;;;51.55;28.80;;;;;;;;;;5013415;28;20053;-44
2021/12/05 06:20:46;;;;;;;49.55;27.52;;;;;;;;;;5013320;28;20018;-44
2021/12/05 06:23:12;;;;;;;50.47;29.65;;;;;;;;;;5013416;28;20026;-43
2021/12/05 06:25:40;;;;;;;49.10;28.75;;;;;;;;;;5013428;28;20030;-45
2021/12/05 06:28:11;;;;;;;53.67;29.10;;;;;;;;;;5013218;28;20030;-45
2021/12/05 06:46:48;;;;;;;59.28;31.90;;;;;;;;;;5017102;28;20127;-44
2021/12/05 06:49:15;;;;;;;84.63;43.58;;;;;;;;;;5016653;28;20034;-44
2021/12/05 06:51:41;;;;;;;63.15;34.30;;;;;;;;;;5020012;28;20028;-44
2021/12/05 06:54:08;;;;;;;53.88;29.33;;;;;;;;;;5035803;28;20128;-43
2021/12/05 06:56:34;;;;;;;55.65;30.08;;;;;;;;;;5035845;28;20061;-44
2021/12/05 06:59:00;;;;;;;54.53;29.88;;;;;;;;;;5035932;28;20021;-44
2021/12/05 07:01:27;;;;;;;56.17;30.08;;;;;;;;;;5035891;28;20537;-43
2021/12/05 07:03:53;;;;;;;54.63;30.70;;;;;;;;;;5035753;28;20108;-43
2021/12/05 07:06:26;;;;;;;64.85;35.72;;;;;;;;;;5035901;28;20026;-45
2021/12/05 07:08:56;;;;;;;72.38;39.20;;;;;;;;;;5035571;28;20491;-44
2021/12/05 07:11:53;;;;;;;66.47;37.17;;;;;;;;;;5035832;28;20024;-44
2021/12/05 07:14:37;;;;;;;64.85;36.58;;;;;;;;;;5035264;28;20033;-45
2021/12/05 07:17:08;;;;;;;61.13;34.17;;;;;;;;;;5035301;28;20418;-45
2021/12/05 07:20:18;;;;;;;60.97;31.40;;;;;;;;;;5035735;28;20026;-44
2021/12/05 07:22:37;;;;;;;53.33;30.15;;;;;;;;;;5034214;28;20072;-44
2021/12/05 07:25:13;;;;;;;53.35;30.20;;;;;;;;;;5035249;28;20034;-44
2021/12/05 07:41:45;;;;;;;62.25;34.28;;;;;;;;;;5032116;28;20087;-44
2021/12/05 07:44:11;;;;;;;68.43;37.15;;;;;;;;;;5034874;28;20029;-45
2021/12/05 07:46:37;;;;;;;68.28;35.63;;;;;;;;;;5035205;28;20037;-45
2021/12/05 07:49:06;;;;;;;75.85;38.97;;;;;;;;;;5034876;28;20034;-44
2021/12/05 07:51:37;;;;;;;90.85;43.80;;;;;;;;;;5034840;28;20049;-45
2021/12/05 07:56:41;;;;;;;94.28;45.33;;;;;;;;;;5034592;28;20049;-44
2021/12/05 08:15:25;;;;;;;116.32;53.33;;;;;;;;;;5033344;28;20052;-44
2021/12/05 08:17:53;;;;;;;93.15;44.72;;;;;;;;;;5034679;28;20025;-43
2021/12/05 08:20:21;;;;;;;92.78;46.15;;;;;;;;;;5034526;28;20025;-43
2021/12/05 08:22:50;;;;;;;96.43;48.15;;;;;;;;;;5030559;28;20060;-43
2021/12/05 08:25:16;;;;;;;73.78;38.80;;;;;;;;;;5034278;28;20040;-44
2021/12/05 08:27:50;;;;;;;74.20;37.88;;;;;;;;;;5034199;28;20083;-45
2021/12/05 08:30:26;;;;;;;74.57;39.63;;;;;;;;;;5034434;28;20445;-46
2021/12/05 08:41:14;;;;;;;;;;;;;;;;;;5034248;28;20101;-41
2021/12/05 09:21:48;;;;;;;69.13;33.70;;;;;;;;;;5032933;28;20539;-45
2021/12/05 09:24:39;;;;;;;75.97;35.63;;;;;;;;;;5031168;28;20022;-45
2021/12/05 10:03:01;;;;;;;44.25;25.67;;;;;;;;;;4972306;28;20037;-44
2021/12/05 10:11:15;;;;;;;46.42;26.70;;;;;;;;;;4956793;29;20067;-44
2021/12/05 10:16:18;;;;;;;57.42;31.38;;;;;;;;;;4956746;29;20177;-44
2021/12/05 10:38:11;;;;;;;53.03;33.22;;;;;;;;;;4937427;29;20027;-45
2021/12/05 10:40:44;;;;;;;73.47;39.70;;;;;;;;;;4937279;29;20032;-45
2021/12/05 10:43:12;;;;;;;75.82;39.70;;;;;;;;;;4937161;29;20468;-44
2021/12/05 10:45:40;;;;;;;66.45;35.30;;;;;;;;;;4959318;28;20039;-44
2021/12/05 10:48:21;;;;;;;67.53;35.70;;;;;;;;;;4975700;28;20043;-44
2021/12/05 10:50:51;;;;;;;57.50;33.10;;;;;;;;;;4975508;28;20115;-44
2021/12/05 10:53:20;;;;;;;67.15;37.92;;;;;;;;;;4975615;28;20027;-44
2021/12/05 10:55:46;;;;;;;65.22;36.03;;;;;;;;;;4975641;28;20039;-43
2021/12/05 10:58:12;;;;;;;57.08;34.40;;;;;;;;;;4975516;28;20380;-44
2021/12/05 11:00:39;;;;;;;76.18;39.70;;;;;;;;;;4969626;28;20033;-43
2021/12/05 11:03:15;;;;;;;72.15;37.65;;;;;;;;;;5036260;28;20110;-43
2021/12/05 11:05:42;;;;;;;56.00;30.10;;;;;;;;;;5036159;28;20032;-42
2021/12/05 11:08:27;;;;;;;64.10;35.50;;;;;;;;;;5035206;28;20108;-43
2021/12/05 11:11:05;;;;;;;50.80;28.95;;;;;;;;;;5032047;28;20025;-43
2021/12/05 11:13:31;;;;;;;52.08;29.38;;;;;;;;;;5008196;28;20037;-43
2021/12/05 11:15:57;;;;;;;54.67;29.08;;;;;;;;;;5032143;28;20053;-44
2021/12/05 11:18:42;;;;;;;65.00;35.75;;;;;;;;;;5032668;28;20048;-44
2021/12/05 11:21:25;;;;;;;45.25;27.80;;;;;;;;;;5040097;28;20039;-42
2021/12/05 11:24:11;;;;;;;50.17;28.48;;;;;;;;;;5055744;28;20025;-42
2021/12/05 11:26:42;;;;;;;58.17;33.65;;;;;;;;;;5055651;28;20029;-42
2021/12/05 11:29:09;;;;;;;61.03;34.43;;;;;;;;;;5055570;28;20055;-42
2021/12/05 11:31:36;;;;;;;61.13;33.38;;;;;;;;;;5044642;28;20048;-42
2021/12/05 11:34:03;;;;;;;62.40;32.53;;;;;;;;;;5035966;28;20030;-42
2021/12/05 11:36:33;;;;;;;72.20;39.13;;;;;;;;;;5035434;28;20104;-42
2021/12/05 11:38:59;;;;;;;57.83;32.75;;;;;;;;;;5035953;28;20022;-45
2021/12/05 11:41:25;;;;;;;67.53;36.53;;;;;;;;;;5035517;28;20851;-44
2021/12/05 11:43:57;;;;;;;122.32;64.97;;;;;;;;;;5035470;28;20056;-40
2021/12/05 11:46:31;;;;;;;83.40;45.05;;;;;;;;;;5035371;28;20028;-40
2021/12/05 11:49:02;;;;;;;95.95;50.88;;;;;;;;;;5035084;28;20045;-42
2021/12/05 11:51:33;;;;;;;90.80;49.05;;;;;;;;;;5035294;28;20090;-43
2021/12/05 11:54:08;;;;;;;81.80;43.58;;;;;;;;;;5035307;28;20559;-43
2021/12/05 11:56:36;;;;;;;77.05;40.38;;;;;;;;;;5035554;28;20399;-43
2021/12/05 11:59:14;;;;;;;71.28;40.15;;;;;;;;;;5035580;28;20025;-43
2021/12/05 12:01:41;;;;;;;67.60;38.10;;;;;;;;;;5035268;28;20104;-44
2021/12/05 12:04:10;;;;;;;62.15;34.55;;;;;;;;;;5035045;28;20446;-43
2021/12/05 12:06:39;;;;;;;85.32;42.92;;;;;;;;;;5034452;28;20025;-43
2021/12/05 12:09:08;;;;;;;65.45;36.65;;;;;;;;;;5034464;28;20505;-42
2021/12/05 12:11:34;;;;;;;57.80;35.22;;;;;;;;;;5034522;28;20056;-43
2021/12/05 12:14:03;;;;;;;56.25;32.55;;;;;;;;;;5034344;28;20036;-44
2021/12/05 12:16:33;;;;;;;65.40;33.63;;;;;;;;;;5032180;28;20036;-45
2021/12/05 12:19:00;;;;;;;80.45;42.05;;;;;;;;;;5034298;28;20023;-45
2021/12/05 12:21:33;;;;;;;57.42;31.88;;;;;;;;;;5034533;28;20029;-44
2021/12/05 12:24:00;;;;;;;65.03;36.40;;;;;;;;;;5034314;28;20024;-44
2021/12/05 12:26:26;;;;;;;58.70;30.83;;;;;;;;;;5034200;28;20025;-46
2021/12/05 12:28:53;;;;;;;57.20;33.90;;;;;;;;;;5033799;28;20040;-48
2021/12/05 12:31:28;;;;;;;71.95;35.40;;;;;;;;;;5034096;28;20020;-51
2021/12/05 12:33:56;;;;;;;80.28;41.78;;;;;;;;;;5032235;28;20028;-50
2021/12/05 12:36:31;;;;;;;68.72;35.97;;;;;;;;;;5033911;28;20079;-46
2021/12/05 12:38:57;;;;;;;66.25;36.70;;;;;;;;;;5034083;28;20078;-46
2021/12/05 12:41:24;;;;;;;55.92;32.88;;;;;;;;;;5033814;28;20021;-45
2021/12/05 12:43:53;;;;;;;51.38;31.30;;;;;;;;;;5033917;28;20017;-47
2021/12/05 12:46:36;;;;;;;51.05;30.75;;;;;;;;;;5033713;28;20025;-42
2021/12/05 12:49:17;;;;;;;55.75;30.98;;;;;;;;;;5033281;28;20041;-43
2021/12/05 12:51:47;;;;;;;55.15;32.70;;;;;;;;;;5033749;28;20025;-43
2021/12/05 12:54:19;;;;;;;63.25;35.17;;;;;;;;;;5034248;28;20025;-43
2021/12/05 12:57:03;;;;;;;63.10;36.58;;;;;;;;;;5033993;28;20056;-42
2021/12/05 12:59:33;;;;;;;62.28;32.67;;;;;;;;;;5034215;28;20503;-42
2021/12/05 13:05:01;;;;;;;56.08;31.55;;;;;;;;;;5034164;28;20079;-44
2021/12/05 13:10:08;;;;;;;59.97;34.40;;;;;;;;;;5034047;28;20041;-46
2021/12/05 13:12:48;;;;;;;56.63;32.30;;;;;;;;;;5034029;28;20474;-46
2021/12/05 13:15:16;;;;;;;53.05;31.45;;;;;;;;;;5033658;28;20064;-45
2021/12/05 13:18:01;;;;;;;57.13;32.20;;;;;;;;;;5033845;28;20088;-45
2021/12/05 13:20:46;;;;;;;62.60;31.40;;;;;;;;;;5033565;28;20021;-43
2021/12/05 13:23:22;;;;;;;63.58;35.42;;;;;;;;;;5032293;28;20444;-47
2021/12/05 13:26:06;;;;;;;65.40;35.55;;;;;;;;;;5033591;28;20465;-43
2021/12/05 13:28:34;;;;;;;51.75;29.67;;;;;;;;;;5033503;28;20033;-45
2021/12/05 13:31:20;;;;;;;56.33;31.98;;;;;;;;;;5033648;28;20029;-44
2021/12/05 13:33:47;;;;;;;46.00;28.67;;;;;;;;;;5033411;28;20453;-46
2021/12/05 13:36:33;;;;;;;49.97;29.38;;;;;;;;;;5033484;28;20032;-47
2021/12/05 13:38:59;;;;;;;50.58;28.73;;;;;;;;;;5033524;28;20036;-48
2021/12/05 13:41:27;;;;;;;52.92;27.92;;;;;;;;;;5032101;28;20448;-43
2021/12/05 13:43:58;;;;;;;51.45;30.63;;;;;;;;;;5033281;28;20025;-46
2021/12/05 13:46:31;;;;;;;50.55;30.75;;;;;;;;;;5021591;28;20041;-44
2021/12/05 13:48:57;;;;;;;44.10;26.55;;;;;;;;;;5003716;28;20049;-45
2021/12/05 13:51:24;;;;;;;43.67;26.98;;;;;;;;;;5003295;28;20053;-46
2021/12/05 13:53:51;;;;;;;44.60;26.75;;;;;;;;;;5003621;28;20025;-46
2021/12/05 13:56:23;;;;;;;45.55;28.70;;;;;;;;;;5003703;28;20044;-42
2021/12/05 13:58:53;;;;;;;50.33;29.40;;;;;;;;;;5003040;28;20029;-45
2021/12/05 14:01:38;;;;;;;58.00;31.30;;;;;;;;;;5031843;28;20117;-43
2021/12/05 14:04:10;;;;;;;48.83;29.73;;;;;;;;;;5003262;28;20109;-45
2021/12/05 14:06:36;;;;;;;;;;;;;;;;;;5003678;28;20142;-45
2021/12/05 14:09:17;;;;;;;49.03;26.90;;;;;;;;;;5003264;28;19939;-43
2021/12/05 14:11:49;;;;;;;42.72;26.70;;;;;;;;;;5003800;28;20025;-49
2021/12/05 14:14:16;;;;;;;46.72;27.25;;;;;;;;;;5003351;28;20153;-45
2021/12/05 14:16:44;;;;;;;42.97;26.98;;;;;;;;;;5003327;28;20025;-42
2021/12/05 14:19:13;;;;;;;55.85;31.45;;;;;;;;;;5003679;28;20030;-45
2021/12/05 14:21:41;;;;;;;46.42;28.52;;;;;;;;;;5003261;28;20029;-45
2021/12/05 14:24:07;;;;;;;114.30;58.25;;;;;;;;;;5020150;28;20029;-45
2021/12/05 14:26:39;;;;;;;55.40;31.88;;;;;;;;;;5003517;28;20030;-45
2021/12/05 14:29:07;;;;;;;49.13;28.35;;;;;;;;;;5002892;28;20112;-46
2021/12/05 14:31:41;;;;;;;44.60;26.17;;;;;;;;;;5002917;28;20026;-47
2021/12/05 14:34:09;;;;;;;47.35;27.35;;;;;;;;;;5003022;28;20036;-45
2021/12/05 14:36:43;;;;;;;45.20;26.35;;;;;;;;;;5002991;28;20025;-45
2021/12/05 14:39:16;;;;;;;48.05;27.00;;;;;;;;;;5003070;28;20080;-46
2021/12/05 14:41:43;;;;;;;44.50;25.63;;;;;;;;;;5003575;28;20053;-44
2021/12/05 14:44:09;;;;;;;44.05;25.80;;;;;;;;;;5003416;28;20031;-47
2021/12/05 14:46:44;;;;;;;54.90;31.52;;;;;;;;;;5003282;28;21037;-45
2021/12/05 14:49:10;;;;;;;51.55;29.10;;;;;;;;;;5002431;28;20091;-44
2021/12/05 14:51:38;;;;;;;49.55;28.95;;;;;;;;;;5005643;28;21231;-43
2021/12/05 14:54:05;;;;;;;50.90;29.10;;;;;;;;;;5006649;28;20030;-49
2021/12/05 14:56:32;;;;;;;63.00;34.22;;;;;;;;;;5006759;28;20140;-44
2021/12/05 14:59:09;;;;;;;54.03;29.35;;;;;;;;;;5006418;28;20026;-43
2021/12/05 15:01:39;;;;;;;68.43;37.08;;;;;;;;;;5006620;28;20640;-45
2021/12/05 15:04:06;;;;;;;63.17;34.50;;;;;;;;;;5006476;28;20509;-43
2021/12/05 15:06:37;;;;;;;55.45;32.78;;;;;;;;;;5006968;28;20036;-45
2021/12/05 15:09:07;;;;;;;47.50;27.58;;;;;;;;;;5034542;28;20812;-44
2021/12/05 15:11:36;;;;;;;45.75;27.50;;;;;;;;;;5006335;28;20036;-43
2021/12/05 15:14:06;;;;;;;60.83;32.35;;;;;;;;;;5005946;28;20021;-43
2021/12/05 15:16:35;;;;;;;60.45;32.53;;;;;;;;;;5006573;28;20494;-43
2021/12/05 15:19:01;;;;;;;67.63;38.00;;;;;;;;;;5006159;28;20025;-42
2021/12/05 15:21:27;;;;;;;48.30;29.80;;;;;;;;;;5042903;28;20032;-42
2021/12/05 15:23:54;;;;;;;59.17;34.35;;;;;;;;;;5055748;28;20031;-43
2021/12/05 15:26:21;;;;;;;51.42;29.92;;;;;;;;;;5055774;28;20079;-43
2021/12/05 15:28:49;;;;;;;53.95;30.67;;;;;;;;;;5055825;28;20063;-55
2021/12/05 15:31:16;;;;;;;63.08;33.22;;;;;;;;;;5055765;28;20025;-53
2021/12/05 15:33:43;;;;;;;52.15;29.42;;;;;;;;;;5055744;28;20056;-51
2021/12/05 15:36:09;;;;;;;60.72;30.77;;;;;;;;;;5055637;28;20024;-54
2021/12/05 15:38:35;;;;;;;47.78;28.20;;;;;;;;;;5055423;28;20025;-53
2021/12/05 15:41:06;;;;;;;51.17;27.17;;;;;;;;;;5055562;28;20025;-54
2021/12/05 15:43:33;;;;;;;60.90;31.20;;;;;;;;;;5055447;28;20088;-54
2021/12/05 15:46:00;;;;;;;51.28;28.27;;;;;;;;;;5055461;28;20453;-52
2021/12/05 15:48:27;;;;;;;61.08;32.53;;;;;;;;;;5055338;28;20067;-53
2021/12/05 15:50:54;;;;;;;84.10;45.03;;;;;;;;;;5055434;28;20135;-51
2021/12/05 15:53:20;;;;;;;67.20;36.90;;;;;;;;;;5055151;28;20026;-41
2021/12/05 15:55:52;;;;;;;65.10;35.08;;;;;;;;;;5055164;28;20025;-42
2021/12/05 15:58:24;;;;;;;50.28;28.20;;;;;;;;;;5055247;28;20024;-45
2021/12/05 16:00:54;;;;;;;39.88;23.75;;;;;;;;;;5053825;28;20018;-41
2021/12/05 16:03:25;;;;;;;57.13;30.40;;;;;;;;;;5035459;28;20029;-41
2021/12/05 16:05:58;;;;;;;59.63;29.15;;;;;;;;;;5035091;28;20025;-43
2021/12/05 16:08:27;;;;;;;54.78;28.35;;;;;;;;;;5035135;28;20040;-43
2021/12/05 16:10:57;;;;;;;65.30;34.30;;;;;;;;;;5033994;28;20481;-43
2021/12/05 16:13:25;;;;;;;55.13;32.60;;;;;;;;;;5035055;28;20021;-44
2021/12/05 16:15:53;;;;;;;47.70;27.73;;;;;;;;;;5034944;28;20059;-42
2021/12/05 16:18:20;;;;;;;50.60;28.77;;;;;;;;;;5035080;28;20109;-45
2021/12/05 16:20:48;;;;;;;54.83;29.73;;;;;;;;;;5030769;28;20056;-43
2021/12/05 16:23:22;;;;;;;62.30;33.83;;;;;;;;;;5029586;28;20036;-50
2021/12/05 16:26:09;;;;;;;70.97;37.88;;;;;;;;;;5031357;28;20021;-49
2021/12/05 16:28:39;;;;;;;64.05;33.00;;;;;;;;;;5029467;28;20045;-48
2021/12/05 16:31:09;;;;;;;89.00;50.13;;;;;;;;;;5028957;28;20040;-49
2021/12/05 16:33:35;;;;;;;110.97;61.80;;;;;;;;;;5030734;28;20511;-51
2021/12/05 16:36:02;;;;;;;65.88;34.13;;;;;;;;;;5030755;28;20529;-50
2021/12/05 16:38:36;;;;;;;67.85;36.13;;;;;;;;;;5030812;28;20033;-46
2021/12/05 16:41:23;;;;;;;91.28;46.97;;;;;;;;;;5030507;28;20532;-49
2021/12/05 16:43:55;;;;;;;57.50;32.25;;;;;;;;;;5021197;28;20037;-49
2021/12/05 16:46:23;;;;;;;102.82;52.40;;;;;;;;;;5030807;28;20044;-53
2021/12/05 16:48:49;;;;;;;92.60;49.08;;;;;;;;;;5030628;28;20501;-47
2021/12/05 16:51:15;;;;;;;81.40;41.85;;;;;;;;;;5031043;28;20032;-49
2021/12/05 16:53:46;;;;;;;75.35;38.80;;;;;;;;;;5029556;28;20020;-43
2021/12/05 16:56:14;;;;;;;60.47;32.83;;;;;;;;;;5028696;28;20033;-45
2021/12/05 16:58:42;;;;;;;79.38;44.17;;;;;;;;;;5029231;28;20028;-47
2021/12/05 17:01:14;;;;;;;70.28;39.00;;;;;;;;;;5029956;28;20029;-51
2021/12/05 17:03:43;;;;;;;64.97;33.47;;;;;;;;;;5029133;28;20043;-41
2021/12/05 17:06:11;;;;;;;162.40;90.05;;;;;;;;;;5030456;28;20099;-44
2021/12/05 17:08:44;;;;;;;100.68;53.08;;;;;;;;;;5028147;28;20231;-46
2021/12/05 17:11:10;;;;;;;98.50;55.25;;;;;;;;;;5028510;28;20098;-47
2021/12/05 17:13:39;;;;;;;98.93;55.38;;;;;;;;;;5030158;28;20040;-49
2021/12/05 17:16:13;;;;;;;89.32;48.92;;;;;;;;;;5029833;28;20056;-53
2021/12/05 17:18:45;;;;;;;117.15;64.68;;;;;;;;;;5027951;28;20025;-49
2021/12/05 17:21:18;;;;;;;111.05;64.18;;;;;;;;;;5028213;28;20068;-45
2021/12/05 17:23:52;;;;;;;103.22;58.97;;;;;;;;;;5028446;28;20044;-48
2021/12/05 17:26:20;;;;;;;174.13;100.80;;;;;;;;;;5029543;28;20029;-46
2021/12/05 17:28:52;;;;;;;144.77;86.60;;;;;;;;;;5030053;28;20122;-45
2021/12/05 17:31:24;;;;;;;107.00;64.15;;;;;;;;;;5029901;28;20028;-47
2021/12/05 17:33:54;;;;;;;99.38;59.35;;;;;;;;;;5029438;28;20021;-43
2021/12/05 17:36:32;;;;;;;98.60;58.80;;;;;;;;;;5027976;28;20025;-47
2021/12/05 17:39:06;;;;;;;120.70;66.60;;;;;;;;;;5027800;28;20100;-49
2021/12/05 17:41:34;;;;;;;112.90;64.63;;;;;;;;;;5027922;28;20032;-45
2021/12/05 17:44:03;;;;;;;136.32;78.43;;;;;;;;;;5029475;28;20103;-47
2021/12/05 17:46:30;;;;;;;121.00;70.45;;;;;;;;;;5029707;28;20543;-45
2021/12/05 17:48:56;;;;;;;151.68;83.03;;;;;;;;;;5026910;28;20602;-46
2021/12/05 17:51:31;;;;;;;166.80;94.53;;;;;;;;;;5029852;28;20174;-46
2021/12/05 17:53:58;;;;;;;169.15;93.10;;;;;;;;;;5029427;28;20041;-46
2021/12/05 17:56:51;;;;;;;157.25;83.78;;;;;;;;;;5030062;28;20021;-47
2021/12/05 17:59:13;;;;;;;125.13;73.47;;;;;;;;;;5028522;28;20444;-47
2021/12/05 18:04:27;;;;;;;131.27;76.10;;;;;;;;;;5028618;28;20048;-42
2021/12/05 18:06:55;;;;;;;120.28;65.75;;;;;;;;;;5029266;28;20355;-42
2021/12/05 18:09:21;;;;;;;115.90;65.07;;;;;;;;;;5028467;28;20042;-49
2021/12/05 18:11:48;;;;;;;99.57;59.50;;;;;;;;;;5029647;28;20520;-43
2021/12/05 18:14:14;;;;;;;87.30;49.65;;;;;;;;;;5029278;28;20033;-46
2021/12/05 18:16:40;;;;;;;91.22;49.83;;;;;;;;;;5029543;28;20453;-44
2021/12/05 18:19:08;;;;;;;108.95;55.17;;;;;;;;;;5029100;28;20698;-44
2021/12/05 18:21:38;;;;;;;96.97;52.28;;;;;;;;;;5029090;28;20041;-47
2021/12/05 18:24:05;;;;;;;82.28;46.83;;;;;;;;;;5028727;28;20455;-45
2021/12/05 18:26:32;;;;;;;89.13;48.13;;;;;;;;;;5031300;28;20065;-51
2021/12/05 18:28:58;;;;;;;90.55;50.78;;;;;;;;;;5031829;28;20025;-50
2021/12/05 18:31:26;;;;;;;97.18;53.22;;;;;;;;;;5033030;28;20082;-48
2021/12/05 18:34:03;;;;;;;80.70;47.15;;;;;;;;;;5032831;28;20323;-52
2021/12/05 18:36:31;;;;;;;80.32;48.13;;;;;;;;;;5030872;28;20136;-47
2021/12/05 18:38:57;;;;;;;102.50;55.30;;;;;;;;;;5032979;28;20102;-47
2021/12/05 18:41:25;;;;;;;119.95;63.60;;;;;;;;;;5033283;28;20029;-46
2021/12/05 18:43:52;;;;;;;179.05;88.10;;;;;;;;;;5031915;28;20124;-48
2021/12/05 18:46:18;;;;;;;145.75;71.38;;;;;;;;;;5031333;28;20059;-49
2021/12/05 18:48:47;;;;;;;136.57;67.85;;;;;;;;;;5033256;28;20152;-49
2021/12/05 18:51:20;;;;;;;100.90;50.33;;;;;;;;;;5032153;28;20029;-50
2021/12/05 18:53:46;;;;;;;67.75;40.78;;;;;;;;;;5031359;28;20032;-46
2021/12/05 18:56:12;;;;;;;67.47;39.78;;;;;;;;;;5032743;28;20127;-47
2021/12/05 18:58:42;;;;;;;70.78;37.65;;;;;;;;;;5024296;28;20384;-49
2021/12/05 19:06:46;;;;;;;58.72;35.53;;;;;;;;;;5030482;28;20027;-49
2021/12/05 19:09:21;;;;;;;67.75;38.08;;;;;;;;;;5031018;28;20044;-48
2021/12/05 19:11:53;;;;;;;65.22;36.13;;;;;;;;;;5030142;28;20025;-50
2021/12/05 19:14:19;;;;;;;66.30;38.28;;;;;;;;;;5032115;28;20056;-50
2021/12/05 19:16:49;;;;;;;80.47;45.03;;;;;;;;;;5032288;28;20051;-50
2021/12/05 19:19:17;;;;;;;63.72;35.42;;;;;;;;;;5032547;28;20047;-50
2021/12/05 19:21:43;;;;;;;53.78;32.53;;;;;;;;;;5032361;28;20036;-51
2021/12/05 19:24:09;;;;;;;60.55;37.03;;;;;;;;;;5032818;28;20024;-49
2021/12/05 19:26:36;;;;;;;54.97;32.20;;;;;;;;;;5032000;28;20025;-49
2021/12/05 19:29:06;;;;;;;70.15;40.17;;;;;;;;;;5030805;28;20029;-47
2021/12/05 19:31:33;;;;;;;57.55;34.53;;;;;;;;;;5032337;28;20528;-50
2021/12/05 19:33:59;;;;;;;68.28;39.03;;;;;;;;;;5031897;28;20021;-51
2021/12/05 19:36:28;;;;;;;93.57;49.10;;;;;;;;;;5031869;28;20057;-51
2021/12/05 19:38:55;;;;;;;79.75;45.72;;;;;;;;;;5032141;28;20543;-50
2021/12/05 19:41:24;;;;;;;75.32;40.95;;;;;;;;;;5031609;28;20025;-47
2021/12/05 19:43:50;;;;;;;69.82;42.50;;;;;;;;;;5031205;28;20025;-49
2021/12/05 19:46:18;;;;;;;72.47;41.78;;;;;;;;;;5032015;28;20025;-46
2021/12/05 19:48:45;;;;;;;74.05;43.05;;;;;;;;;;5031986;28;20029;-47
2021/12/05 19:51:12;;;;;;;76.05;43.83;;;;;;;;;;5031565;28;20790;-49
2021/12/05 19:53:41;;;;;;;74.50;42.17;;;;;;;;;;5030806;28;20052;-49
2021/12/05 19:56:08;;;;;;;75.03;42.92;;;;;;;;;;5031820;28;20036;-48
2021/12/05 19:58:35;;;;;;;78.50;45.90;;;;;;;;;;5031854;28;20477;-47